createdAt,value
2023-12-10T00:02:35.283Z,15.05
2023-12-10T00:05:20.734Z,18.30
2023-12-10T00:08:06.154Z,17.98
2023-12-10T00:10:51.638Z,16.85
2023-12-10T00:13:37.127Z,23.15
2023-12-10T00:16:22.561Z,29.90
2023-12-10T00:19:08.113Z,23.52
2023-12-10T00:21:53.768Z,14.65
2023-12-10T00:24:39.478Z,18.85
2023-12-10T00:27:25.366Z,30.27
2023-12-10T00:30:11.335Z,18.27
2023-12-10T00:32:56.810Z,14.27
2023-12-10T00:35:42.504Z,15.77
2023-12-10T00:38:28.518Z,24.17
2023-12-10T00:41:14.993Z,21.08
2023-12-10T00:44:00.651Z,12.68
2023-12-10T00:46:46.050Z,18.58
2023-12-10T00:49:31.602Z,10.23
2023-12-10T00:52:17.467Z,12.13
2023-12-10T00:55:02.837Z,13.13
2023-12-10T00:57:48.346Z,12.57
2023-12-10T01:00:33.793Z,23.38
2023-12-10T01:03:19.819Z,9.65
2023-12-10T01:06:05.738Z,21.52
2023-12-10T01:08:51.229Z,10.82
2023-12-10T01:11:36.553Z,12.63
2023-12-10T01:14:21.951Z,19.15
2023-12-10T01:17:09.509Z,14.88
2023-12-10T01:19:55.101Z,13.63
2023-12-10T01:22:41.997Z,14.13
2023-12-10T01:25:28.222Z,12.82
2023-12-10T01:28:13.740Z,15.82
2023-12-10T01:30:59.314Z,14.82
2023-12-10T01:33:45.655Z,8.48
2023-12-10T01:36:31.509Z,18.33
2023-12-10T01:39:17.175Z,14.38
2023-12-10T01:42:02.747Z,13.02
2023-12-10T01:44:48.464Z,12.18
2023-12-10T01:47:36.750Z,17.33
2023-12-10T01:50:23.096Z,10.52
2023-12-10T01:53:09.521Z,12.63
2023-12-10T01:55:55.336Z,10.60
2023-12-10T01:58:41.630Z,18.27
2023-12-10T02:01:28.239Z,10.98
2023-12-10T02:04:15.841Z,11.27
2023-12-10T02:07:01.315Z,17.63
2023-12-10T02:09:47.135Z,12.85
2023-12-10T02:12:35.833Z,25.63
2023-12-10T02:15:22.543Z,16.08
2023-12-10T02:18:08.370Z,16.42
2023-12-10T02:20:53.815Z,10.23
2023-12-10T02:23:51.226Z,8.80
2023-12-10T02:26:38.376Z,9.18
2023-12-10T02:29:24.153Z,9.70
2023-12-10T02:32:09.801Z,13.57
2023-12-10T02:34:55.157Z,10.30
2023-12-10T02:37:40.659Z,15.85
2023-12-10T02:40:26.533Z,19.60
2023-12-10T02:43:12.100Z,16.10
2023-12-10T02:45:57.783Z,18.52
2023-12-10T02:48:43.210Z,22.35
2023-12-10T02:51:28.684Z,16.85
2023-12-10T02:54:14.200Z,11.10
2023-12-10T02:56:59.833Z,10.93
2023-12-10T02:59:45.579Z,10.40
2023-12-10T03:02:31.158Z,18.73
2023-12-10T03:05:17.060Z,19.83
2023-12-10T03:08:02.819Z,11.90
2023-12-10T03:10:48.380Z,14.23
2023-12-10T03:13:33.989Z,19.10
2023-12-10T03:16:19.457Z,13.60
2023-12-10T03:19:05.574Z,18.60
2023-12-10T03:21:51.406Z,6.78
2023-12-10T03:24:37.099Z,6.88
2023-12-10T03:27:23.265Z,15.65
2023-12-10T03:30:09.703Z,20.38
2023-12-10T03:32:55.221Z,23.02
2023-12-10T03:35:40.702Z,22.80
2023-12-10T03:38:26.230Z,23.67
2023-12-10T03:41:11.665Z,10.98
2023-12-10T03:43:57.148Z,24.65
2023-12-10T03:46:42.648Z,20.05
2023-12-10T03:49:29.768Z,12.38
2023-12-10T03:52:15.140Z,14.45
2023-12-10T03:55:00.730Z,20.98
2023-12-10T03:57:47.438Z,15.82
2023-12-10T04:00:32.989Z,25.35
2023-12-10T04:03:18.377Z,27.33
2023-12-10T04:06:04.294Z,20.65
2023-12-10T04:08:50.257Z,19.85
2023-12-10T04:11:37.214Z,26.08
2023-12-10T04:14:22.941Z,26.70
2023-12-10T04:17:08.497Z,17.40
2023-12-10T04:19:54.012Z,24.40
2023-12-10T04:22:39.336Z,15.18
2023-12-10T04:25:24.854Z,14.38
2023-12-10T04:28:10.410Z,19.00
2023-12-10T04:30:56.048Z,27.80
2023-12-10T04:33:43.316Z,17.77
2023-12-10T04:36:29.155Z,23.60
2023-12-10T04:39:16.829Z,19.40
2023-12-10T04:42:02.562Z,20.55
2023-12-10T04:44:48.294Z,15.55
2023-12-10T04:47:34.071Z,15.52
2023-12-10T04:50:19.850Z,14.55
2023-12-10T04:53:05.604Z,14.20
2023-12-10T04:55:51.125Z,21.98
2023-12-10T04:58:36.492Z,15.82
2023-12-10T05:01:22.050Z,14.68
2023-12-10T05:04:07.480Z,26.10
2023-12-10T05:06:53.497Z,22.10
2023-12-10T05:09:39.058Z,10.20
2023-12-10T05:12:24.980Z,19.35
2023-12-10T05:15:10.886Z,10.27
2023-12-10T05:17:56.450Z,20.98
2023-12-10T05:20:42.012Z,17.83
2023-12-10T05:23:27.621Z,10.45
2023-12-10T05:26:12.956Z,13.82
2023-12-10T05:28:58.662Z,13.65
2023-12-10T05:31:44.360Z,17.25
2023-12-10T05:34:30.051Z,15.43
2023-12-10T05:37:15.555Z,14.13
2023-12-10T05:40:00.982Z,15.23
2023-12-10T05:42:46.401Z,6.32
2023-12-10T05:45:31.847Z,20.85
2023-12-10T05:48:17.431Z,11.85
2023-12-10T05:51:04.777Z,15.60
2023-12-10T05:53:52.107Z,19.88
2023-12-10T05:56:38.675Z,9.73
2023-12-10T05:59:24.252Z,21.13
2023-12-10T06:02:09.762Z,14.18
2023-12-10T06:04:55.356Z,8.32
2023-12-10T06:07:40.809Z,12.45
2023-12-10T06:10:26.333Z,17.55
2023-12-10T06:13:12.328Z,15.50
2023-12-10T06:15:58.964Z,15.60
2023-12-10T06:18:44.703Z,16.30
2023-12-10T06:21:31.524Z,12.77
2023-12-10T06:24:18.110Z,9.23
2023-12-10T06:27:03.650Z,11.43
2023-12-10T06:29:49.164Z,16.73
2023-12-10T06:32:34.837Z,15.02
2023-12-10T06:35:20.298Z,24.05
2023-12-10T06:38:05.732Z,19.85
2023-12-10T06:40:52.532Z,16.20
2023-12-10T06:43:38.126Z,24.75
2023-12-10T06:46:23.787Z,14.35
2023-12-10T06:49:09.610Z,17.42
2023-12-10T06:51:55.056Z,10.15
2023-12-10T06:54:41.452Z,18.80
2023-12-10T06:57:26.971Z,11.73
2023-12-10T07:00:13.406Z,13.60
2023-12-10T07:02:59.144Z,13.93
2023-12-10T07:05:44.818Z,16.48
2023-12-10T07:08:31.279Z,14.25
2023-12-10T07:11:16.828Z,17.75
2023-12-10T07:14:02.252Z,8.63
2023-12-10T07:16:47.996Z,8.55
2023-12-10T07:19:33.759Z,7.15
2023-12-10T07:22:19.440Z,11.43
2023-12-10T07:25:08.195Z,18.45
2023-12-10T07:27:54.383Z,10.60
2023-12-10T07:30:40.248Z,13.32
2023-12-10T07:33:25.988Z,11.60
2023-12-10T07:36:12.501Z,18.83
2023-12-10T07:38:58.249Z,8.85
2023-12-10T07:41:43.811Z,10.82
2023-12-10T07:44:29.655Z,14.73
2023-12-10T07:47:15.346Z,15.82
2023-12-10T07:50:00.680Z,14.35
2023-12-10T07:52:46.141Z,10.85
2023-12-10T07:55:31.574Z,13.63
2023-12-10T07:58:17.146Z,24.38
2023-12-10T08:01:03.759Z,7.65
2023-12-10T08:03:49.482Z,12.85
2023-12-10T08:06:35.254Z,16.40
2023-12-10T08:09:21.004Z,15.82
2023-12-10T08:12:06.804Z,14.13
2023-12-10T08:14:52.583Z,11.55
2023-12-10T08:17:38.299Z,10.15
2023-12-10T08:20:23.871Z,10.93
2023-12-10T08:23:09.414Z,12.48
2023-12-10T08:25:54.759Z,13.40
2023-12-10T08:28:40.249Z,17.25
2023-12-10T08:31:26.801Z,15.07
2023-12-10T08:34:12.641Z,15.82
2023-12-10T08:36:58.645Z,20.73
2023-12-10T08:39:44.639Z,10.55
2023-12-10T08:42:32.354Z,21.83
2023-12-10T08:45:19.253Z,19.67
2023-12-10T08:48:05.076Z,20.58
2023-12-10T08:50:50.620Z,19.15
2023-12-10T08:53:36.410Z,29.98
2023-12-10T08:56:21.796Z,31.30
2023-12-10T08:59:07.348Z,31.52
2023-12-10T09:01:52.909Z,31.20
2023-12-10T09:04:38.314Z,29.17
2023-12-10T09:07:23.643Z,18.35
2023-12-10T09:10:12.579Z,16.52
2023-12-10T09:12:59.323Z,38.80
2023-12-10T09:15:45.228Z,28.65
2023-12-10T09:18:31.229Z,26.88
2023-12-10T09:21:16.814Z,29.65
2023-12-10T09:24:02.259Z,25.92
2023-12-10T09:26:47.827Z,25.42
2023-12-10T09:29:39.765Z,18.23
2023-12-10T09:32:28.900Z,25.17
2023-12-10T09:35:14.974Z,19.13
2023-12-10T09:38:01.757Z,16.67
2023-12-10T09:40:47.436Z,17.52
2023-12-10T09:43:33.330Z,14.20
2023-12-10T09:46:18.963Z,12.48
2023-12-10T09:49:05.213Z,13.65
2023-12-10T09:51:50.646Z,20.23
2023-12-10T09:54:40.973Z,12.05
2023-12-10T09:57:29.345Z,16.85
2023-12-10T10:00:15.595Z,16.10
2023-12-10T10:03:02.852Z,14.18
2023-12-10T10:05:48.987Z,16.48
2023-12-10T10:08:34.536Z,17.50
2023-12-10T10:11:19.937Z,10.55
2023-12-10T10:14:05.983Z,11.10
2023-12-10T10:16:51.382Z,13.75
2023-12-10T10:19:37.149Z,10.70
2023-12-10T10:22:24.996Z,10.30
2023-12-10T10:25:10.541Z,10.40
2023-12-10T10:27:56.578Z,9.48
2023-12-10T10:30:42.362Z,8.80
2023-12-10T10:33:29.049Z,11.30
2023-12-10T10:36:17.526Z,9.40
2023-12-10T10:39:03.074Z,11.27
2023-12-10T10:41:50.642Z,16.98
2023-12-10T10:44:42.858Z,20.63
2023-12-10T10:47:29.503Z,10.45
2023-12-10T10:50:22.432Z,13.85
2023-12-10T10:53:11.391Z,26.98
2023-12-10T10:55:57.470Z,21.33
2023-12-10T10:58:43.008Z,13.32
2023-12-10T11:01:41.739Z,18.17
2023-12-10T11:04:40.538Z,19.35
2023-12-10T11:07:26.853Z,11.65
2023-12-10T11:10:12.645Z,24.30
2023-12-10T11:12:59.154Z,17.30
2023-12-10T11:15:44.496Z,18.65
2023-12-10T11:18:30.097Z,16.63
2023-12-10T11:21:15.968Z,19.30
2023-12-10T11:24:01.497Z,19.48
2023-12-10T11:26:47.814Z,20.77
2023-12-10T11:29:33.367Z,21.73
2023-12-10T11:32:18.645Z,22.38
2023-12-10T11:35:04.483Z,30.83
2023-12-10T11:37:50.257Z,21.90
2023-12-10T11:40:35.952Z,19.55
2023-12-10T11:43:21.566Z,22.20
2023-12-10T11:46:07.084Z,20.35
2023-12-10T11:48:53.030Z,13.23
2023-12-10T11:51:41.824Z,26.63
2023-12-10T11:54:27.724Z,19.70
2023-12-10T11:57:13.683Z,17.02
2023-12-10T12:00:02.585Z,29.85
2023-12-10T12:02:57.896Z,20.42
2023-12-10T12:05:51.896Z,21.00
2023-12-10T12:08:38.291Z,15.45
2023-12-10T12:11:23.810Z,19.95
2023-12-10T12:14:17.100Z,21.65
2023-12-10T12:17:05.088Z,36.25
2023-12-10T12:19:50.877Z,21.85
2023-12-10T12:22:36.903Z,23.70
2023-12-10T12:25:23.300Z,24.00
2023-12-10T12:28:08.811Z,22.83
2023-12-10T12:30:54.476Z,27.02
2023-12-10T12:33:40.667Z,27.05
2023-12-10T12:36:26.681Z,20.05
2023-12-10T12:39:13.018Z,21.00
2023-12-10T12:41:58.449Z,32.97
2023-12-10T12:44:43.919Z,30.38
2023-12-10T12:47:29.922Z,38.85
2023-12-10T12:50:16.149Z,24.48
2023-12-10T12:53:01.798Z,26.70
2023-12-10T12:55:47.242Z,33.60
2023-12-10T12:58:32.975Z,21.27
2023-12-10T13:01:18.873Z,23.60
2023-12-10T13:04:04.948Z,25.75
2023-12-10T13:06:50.432Z,21.80
2023-12-10T13:09:36.011Z,17.95
2023-12-10T13:12:22.470Z,28.77
2023-12-10T13:15:09.319Z,26.00
2023-12-10T13:17:55.066Z,20.40
2023-12-10T13:20:40.484Z,34.65
2023-12-10T13:23:25.840Z,28.90
2023-12-10T13:26:11.864Z,30.50
2023-12-10T13:28:57.378Z,22.75
2023-12-10T13:31:43.184Z,27.85
2023-12-10T13:34:29.209Z,27.65
2023-12-10T13:37:14.716Z,19.60
2023-12-10T13:40:00.186Z,22.17
2023-12-10T13:42:46.158Z,24.98
2023-12-10T13:45:31.575Z,27.10
2023-12-10T13:48:17.218Z,21.45
2023-12-10T13:51:02.674Z,22.42
2023-12-10T13:53:48.233Z,30.50
2023-12-10T13:56:34.777Z,30.67
2023-12-10T13:59:20.550Z,16.40
2023-12-10T14:02:08.490Z,26.23
2023-12-10T14:04:53.979Z,36.65
2023-12-10T14:07:42.191Z,27.83
2023-12-10T14:10:28.017Z,20.48
2023-12-10T14:13:13.541Z,24.58
2023-12-10T14:15:59.031Z,31.17
2023-12-10T14:18:44.456Z,27.80
2023-12-10T14:21:32.537Z,27.23
2023-12-10T14:24:18.924Z,40.83
2023-12-10T14:27:04.394Z,29.52
2023-12-10T14:29:50.127Z,23.10
2023-12-10T14:32:35.681Z,25.02
2023-12-10T14:35:21.164Z,25.90
2023-12-10T14:38:06.860Z,22.95
2023-12-10T14:40:52.620Z,27.20
2023-12-10T14:43:38.300Z,36.67
2023-12-10T14:46:23.822Z,30.63
2023-12-10T14:49:09.767Z,20.42
2023-12-10T14:51:55.551Z,19.55
2023-12-10T14:54:40.914Z,27.08
2023-12-10T14:57:26.658Z,26.40
2023-12-10T15:00:12.920Z,20.17
2023-12-10T15:02:58.390Z,31.35
2023-12-10T15:05:44.058Z,14.70
2023-12-10T15:08:35.853Z,21.20
2023-12-10T15:11:21.383Z,26.95
2023-12-10T15:14:06.670Z,10.57
2023-12-10T15:16:52.268Z,15.40
2023-12-10T15:19:44.392Z,18.35
2023-12-10T15:22:30.336Z,17.38
2023-12-10T15:25:15.860Z,31.63
2023-12-10T15:28:02.033Z,25.73
2023-12-10T15:30:47.748Z,17.83
2023-12-10T15:33:33.096Z,30.17
2023-12-10T15:36:20.898Z,18.92
2023-12-10T15:39:06.891Z,22.85
2023-12-10T15:41:53.963Z,27.15
2023-12-10T15:44:39.482Z,21.60
2023-12-10T15:47:24.867Z,29.77
2023-12-10T15:50:10.821Z,20.48
2023-12-10T15:52:56.715Z,22.80
2023-12-10T15:55:42.386Z,12.60
2023-12-10T15:58:28.034Z,23.00
2023-12-10T16:01:16.541Z,18.23
2023-12-10T16:04:04.522Z,22.02
2023-12-10T16:06:50.546Z,21.15
2023-12-10T16:09:36.053Z,21.38
2023-12-10T16:12:21.513Z,17.70
2023-12-10T16:15:07.658Z,20.10
2023-12-10T16:17:53.540Z,16.80
2023-12-10T16:20:40.034Z,7.93
2023-12-10T16:23:25.752Z,18.67
2023-12-10T16:26:11.439Z,16.83
2023-12-10T16:28:57.704Z,16.30
2023-12-10T16:31:43.341Z,25.33
2023-12-10T16:34:28.967Z,13.65
2023-12-10T16:37:16.926Z,18.52
2023-12-10T16:40:06.175Z,18.95
2023-12-10T16:42:52.146Z,18.23
2023-12-10T16:45:37.810Z,21.98
2023-12-10T16:48:24.853Z,18.80
2023-12-10T16:51:11.026Z,28.77
2023-12-10T16:53:56.598Z,18.70
2023-12-10T16:56:42.570Z,14.80
2023-12-10T16:59:28.990Z,10.82
2023-12-10T17:02:14.811Z,20.40
2023-12-10T17:05:02.551Z,12.85
2023-12-10T17:07:48.274Z,16.67
2023-12-10T17:10:34.454Z,13.23
2023-12-10T17:13:19.981Z,13.88
2023-12-10T17:16:05.860Z,18.52
2023-12-10T17:18:51.311Z,14.48
2023-12-10T17:21:36.687Z,14.20
2023-12-10T17:24:22.257Z,9.35
2023-12-10T17:27:07.928Z,12.68
2023-12-10T17:29:53.404Z,14.18
2023-12-10T17:32:39.313Z,9.90
2023-12-10T17:35:25.462Z,9.13
2023-12-10T17:38:10.999Z,14.52
2023-12-10T17:40:56.618Z,9.40
2023-12-10T17:43:42.347Z,14.52
2023-12-10T17:46:27.904Z,8.55
2023-12-10T17:49:13.833Z,5.18
2023-12-10T17:51:59.838Z,10.77
2023-12-10T17:54:45.574Z,10.95
2023-12-10T17:57:31.663Z,10.43
2023-12-10T18:00:17.895Z,9.57
2023-12-10T18:03:03.942Z,11.32
2023-12-10T18:05:49.556Z,8.82
2023-12-10T18:08:35.178Z,8.50
2023-12-10T18:11:20.726Z,5.28
2023-12-10T18:14:06.903Z,5.13
2023-12-10T18:16:52.743Z,8.57
2023-12-10T18:19:38.424Z,12.93
2023-12-10T18:22:24.952Z,12.82
2023-12-10T18:25:10.706Z,9.93
2023-12-10T18:27:56.182Z,10.38
2023-12-10T18:30:43.079Z,10.20
2023-12-10T18:33:28.775Z,9.10
2023-12-10T18:36:15.072Z,8.80
2023-12-10T18:39:01.042Z,14.80
2023-12-10T18:41:46.654Z,9.30
2023-12-10T18:44:34.022Z,8.60
2023-12-10T18:47:19.758Z,9.45
2023-12-10T18:50:05.677Z,16.42
2023-12-10T18:52:51.251Z,16.80
2023-12-10T18:55:36.825Z,16.48
2023-12-10T18:58:22.471Z,10.82
2023-12-10T19:01:08.106Z,13.38
2023-12-10T19:03:54.076Z,13.27
2023-12-10T19:06:39.460Z,10.55
2023-12-10T19:09:26.324Z,12.00
2023-12-10T19:12:11.676Z,12.93
2023-12-10T19:14:57.228Z,4.07
2023-12-10T19:17:42.841Z,7.40
2023-12-10T19:20:28.733Z,4.05
2023-12-10T19:23:14.521Z,3.20
2023-12-10T19:25:59.988Z,3.85
2023-12-10T19:28:46.827Z,2.78
2023-12-10T19:31:32.487Z,2.85
2023-12-10T19:34:18.053Z,4.18
2023-12-10T19:37:03.634Z,3.58
2023-12-10T19:39:49.131Z,2.05
2023-12-10T19:42:34.749Z,5.75
2023-12-10T19:45:20.215Z,6.13
2023-12-10T19:48:05.796Z,5.75
2023-12-10T19:50:51.049Z,2.40
2023-12-10T19:53:36.549Z,3.45
2023-12-10T19:56:22.379Z,3.38
2023-12-10T19:59:07.951Z,4.45
2023-12-10T20:01:53.603Z,2.45
2023-12-10T20:04:39.578Z,4.18
2023-12-10T20:07:25.514Z,5.65
2023-12-10T20:10:11.566Z,6.22
2023-12-10T20:12:57.126Z,4.82
2023-12-10T20:15:43.222Z,3.08
2023-12-10T20:18:29.703Z,5.70
2023-12-10T20:21:15.485Z,2.10
2023-12-10T20:24:00.972Z,5.15
2023-12-10T20:26:47.705Z,2.13
2023-12-10T20:29:33.195Z,2.92
2023-12-10T20:32:18.929Z,1.52
2023-12-10T20:35:04.859Z,2.85
2023-12-10T20:37:50.287Z,3.40
2023-12-10T20:40:38.810Z,3.05
2023-12-10T20:43:25.382Z,8.38
2023-12-10T20:46:11.249Z,5.35
2023-12-10T20:48:57.908Z,7.57
2023-12-10T20:51:45.611Z,6.18
2023-12-10T20:54:32.735Z,5.00
2023-12-10T20:57:18.338Z,3.17
2023-12-10T21:00:07.581Z,4.47
2023-12-10T21:02:53.277Z,9.43
2023-12-10T21:05:39.867Z,3.90
2023-12-10T21:08:26.837Z,8.18
2023-12-10T21:11:12.418Z,9.20
2023-12-10T21:14:00.713Z,6.53
2023-12-10T21:16:46.394Z,6.07
2023-12-10T21:19:32.454Z,8.25
2023-12-10T21:22:18.477Z,6.60
2023-12-10T21:25:04.036Z,7.75
2023-12-10T21:27:49.771Z,2.92
2023-12-10T21:30:36.462Z,7.40
2023-12-10T21:33:22.065Z,9.63
2023-12-10T21:36:07.933Z,11.57
2023-12-10T21:38:53.279Z,6.55
2023-12-10T21:41:38.662Z,5.82
2023-12-10T21:44:24.238Z,6.45
2023-12-10T21:47:09.511Z,5.18
2023-12-10T21:49:55.050Z,17.20
2023-12-10T21:52:40.450Z,12.88
2023-12-10T21:55:25.924Z,8.82
2023-12-10T21:58:11.653Z,5.18
2023-12-10T22:01:00.355Z,7.70
2023-12-10T22:03:46.628Z,9.60
2023-12-10T22:06:32.276Z,9.30
2023-12-10T22:09:17.701Z,4.68
2023-12-10T22:12:03.258Z,8.75
2023-12-10T22:14:50.697Z,6.38
2023-12-10T22:17:37.952Z,14.13
2023-12-10T22:20:23.156Z,11.85
2023-12-10T22:23:08.702Z,9.65
2023-12-10T22:25:54.155Z,12.82
2023-12-10T22:28:39.932Z,12.93
2023-12-10T22:31:25.633Z,8.77
2023-12-10T22:34:11.314Z,16.42
2023-12-10T22:36:57.085Z,13.10
2023-12-10T22:39:43.157Z,11.38
2023-12-10T22:42:28.698Z,6.03
2023-12-10T22:45:14.539Z,11.02
2023-12-10T22:48:00.111Z,12.43
2023-12-10T22:50:45.953Z,13.55
2023-12-10T22:53:31.586Z,8.35
2023-12-10T22:56:17.094Z,6.32
2023-12-10T22:59:02.536Z,13.20
2023-12-10T23:01:48.001Z,10.77
2023-12-10T23:04:33.651Z,4.88
2023-12-10T23:07:19.097Z,8.52
2023-12-10T23:10:06.146Z,13.00
2023-12-10T23:12:51.888Z,12.35
2023-12-10T23:15:37.718Z,12.88
2023-12-10T23:18:23.153Z,17.13
2023-12-10T23:21:08.728Z,16.05
2023-12-10T23:23:54.876Z,18.92
2023-12-10T23:26:40.553Z,17.85
2023-12-10T23:29:26.063Z,23.08
2023-12-10T23:32:11.721Z,14.82
2023-12-10T23:34:57.549Z,20.60
2023-12-10T23:37:43.028Z,14.60
2023-12-10T23:40:28.491Z,18.05
2023-12-10T23:43:14.109Z,17.02
2023-12-10T23:45:59.665Z,15.77
2023-12-10T23:48:45.124Z,13.07
2023-12-10T23:51:31.015Z,12.48
2023-12-10T23:54:16.537Z,13.40
2023-12-10T23:57:01.970Z,15.43
2023-12-10T23:59:47.425Z,19.58
